Time;durP1;ratioP1;P1;durP2;ratioP2;P2;SDS_P1;SDS_P2;PMS_P1;PMS_P2;Temp;Humidity;BMP_temperature;BMP_pressure;BME280_temperature;BME280_humidity;BME280_pressure;Samples;Min_cycle;Max_cycle;Signal;HPM_P1;HPM_P2
2021/12/10 00:00:47;;;;;;;20.17;11.90;;;1.40;99.90;;;;;;5066770;28;20045;-94
2021/12/10 00:03:25;;;;;;;19.48;12.52;;;1.40;99.90;;;;;;5070228;28;20025;-92
2021/12/10 00:05:55;;;;;;;22.20;13.35;;;1.40;99.90;;;;;;5042503;28;20540;-91
2021/12/10 00:08:23;;;;;;;20.15;12.07;;;1.40;99.90;;;;;;5042463;28;20039;-92
2021/12/10 00:10:52;;;;;;;15.32;12.15;;;1.40;99.90;;;;;;5038206;28;20070;-92
2021/12/10 00:13:18;;;;;;;24.52;11.82;;;1.50;99.90;;;;;;5039621;28;20036;-92
2021/12/10 00:15:45;;;;;;;19.38;11.43;;;1.50;99.90;;;;;;5039197;28;20501;-93
2021/12/10 00:18:13;;;;;;;23.98;11.57;;;1.50;99.90;;;;;;5042375;28;20112;-91
2021/12/10 00:20:40;;;;;;;15.75;11.93;;;1.60;99.90;;;;;;5037954;28;20017;-91
2021/12/10 00:23:12;;;;;;;23.75;11.50;;;1.60;99.90;;;;;;5066156;28;20075;-91
2021/12/10 00:25:41;;;;;;;14.32;11.32;;;1.60;99.90;;;;;;5059498;28;20029;-92
2021/12/10 00:28:21;;;;;;;26.70;13.35;;;1.60;99.90;;;;;;5036625;28;20520;-91
2021/12/10 00:31:21;;;;;;;21.48;12.23;;;1.60;99.90;;;;;;5035411;28;20029;-91
2021/12/10 00:34:00;;;;;;;15.93;11.43;;;1.60;99.90;;;;;;5033179;28;20572;-91
2021/12/10 00:36:26;;;;;;;18.52;11.15;;;1.60;99.90;;;;;;5036372;28;20033;-91
2021/12/10 00:38:53;;;;;;;23.35;13.00;;;1.50;99.90;;;;;;5036525;28;20017;-92
2021/12/10 00:41:20;;;;;;;17.45;11.32;;;1.50;99.90;;;;;;5036807;28;20036;-92
2021/12/10 00:43:46;;;;;;;20.25;12.50;;;1.50;99.90;;;;;;5053904;28;20603;-91
2021/12/10 00:46:12;;;;;;;17.58;11.25;;;1.50;99.90;;;;;;5057453;28;20032;-93
2021/12/10 00:48:39;;;;;;;22.70;11.68;;;1.50;99.90;;;;;;5058772;28;20048;-92
2021/12/10 00:51:07;;;;;;;22.33;13.00;;;1.50;99.90;;;;;;5038239;28;20028;-92
2021/12/10 00:53:34;;;;;;;17.27;12.48;;;1.50;99.90;;;;;;5054959;28;20497;-91
2021/12/10 00:56:00;;;;;;;19.40;12.23;;;1.40;99.90;;;;;;5054030;28;20033;-92
2021/12/10 00:58:27;;;;;;;20.63;11.90;;;1.40;99.90;;;;;;5052551;28;20052;-91
2021/12/10 01:00:56;;;;;;;20.83;12.57;;;1.40;99.90;;;;;;5032428;28;20030;-92
2021/12/10 01:03:27;;;;;;;23.08;12.07;;;1.40;99.90;;;;;;5018800;28;20022;-91
2021/12/10 01:05:57;;;;;;;23.73;13.25;;;1.40;99.90;;;;;;5038211;28;20017;-93
2021/12/10 01:08:23;;;;;;;21.52;12.75;;;1.40;99.90;;;;;;5036336;28;20024;-91
2021/12/10 01:10:54;;;;;;;19.63;12.43;;;1.40;99.90;;;;;;5055662;28;20393;-92
2021/12/10 01:13:27;;;;;;;28.40;13.93;;;1.50;99.90;;;;;;5035869;28;20110;-93
2021/12/10 01:23:42;;;;;;;25.38;14.77;;;1.40;99.90;;;;;;5035783;28;20025;-92
2021/12/10 01:27:41;;;;;;;28.60;14.85;;;1.40;99.90;;;;;;5045771;28;20029;-92
2021/12/10 01:30:15;;;;;;;22.80;13.63;;;1.40;99.90;;;;;;5041845;28;20112;-90
2021/12/10 01:32:45;;;;;;;25.15;14.05;;;1.40;99.90;;;;;;5035731;28;20024;-91
2021/12/10 01:35:16;;;;;;;28.75;13.60;;;1.40;99.90;;;;;;5035913;28;20017;-92
2021/12/10 01:37:42;;;;;;;31.08;15.35;;;1.40;99.90;;;;;;5051555;28;20029;-92
2021/12/10 01:40:09;;;;;;;24.25;14.10;;;1.40;99.90;;;;;;5035279;28;20036;-92
2021/12/10 01:42:47;;;;;;;26.02;15.00;;;1.40;99.90;;;;;;5035349;28;20017;-92
2021/12/10 01:45:21;;;;;;;35.20;18.38;;;1.40;99.90;;;;;;5035233;28;20104;-91
2021/12/10 01:48:00;;;;;;;26.50;15.52;;;1.40;99.90;;;;;;5048758;28;20094;-93
2021/12/10 01:50:27;;;;;;;36.38;16.13;;;1.40;99.90;;;;;;5009595;28;20029;-92
2021/12/10 01:52:56;;;;;;;30.63;16.95;;;1.40;99.90;;;;;;5044411;28;20551;-92
2021/12/10 01:55:23;;;;;;;32.10;15.88;;;1.40;99.90;;;;;;5034594;28;20025;-92
2021/12/10 01:57:51;;;;;;;28.40;16.20;;;1.30;99.90;;;;;;5035148;28;20524;-92
2021/12/10 02:00:20;;;;;;;34.90;17.63;;;1.30;99.90;;;;;;5036332;28;20031;-91
2021/12/10 02:02:46;;;;;;;33.13;16.88;;;1.30;99.90;;;;;;5051083;28;20107;-94
2021/12/10 02:05:12;;;;;;;37.47;16.88;;;1.40;99.90;;;;;;5034587;28;20384;-92
2021/12/10 02:07:38;;;;;;;29.85;15.85;;;1.40;99.90;;;;;;5035534;28;20116;-91
2021/12/10 02:10:09;;;;;;;42.33;18.13;;;1.40;99.90;;;;;;5034258;28;20050;-92
2021/12/10 02:12:35;;;;;;;33.55;16.48;;;1.40;99.90;;;;;;5034594;28;20032;-92
2021/12/10 02:15:03;;;;;;;39.00;17.05;;;1.40;99.90;;;;;;5047844;28;20018;-92
2021/12/10 02:17:36;;;;;;;38.53;16.70;;;1.40;99.90;;;;;;5029794;28;20383;-92
2021/12/10 02:20:16;;;;;;;27.90;16.05;;;1.40;99.90;;;;;;5034612;28;20025;-92
2021/12/10 02:22:43;;;;;;;43.13;19.45;;;1.40;99.90;;;;;;5034391;28;20021;-92
2021/12/10 02:25:10;;;;;;;37.20;17.45;;;1.40;99.90;;;;;;5038285;28;20036;-92
2021/12/10 02:27:36;;;;;;;40.95;17.40;;;1.40;99.90;;;;;;5033939;28;20058;-92
2021/12/10 02:30:06;;;;;;;34.00;17.85;;;1.40;99.90;;;;;;5037198;28;20025;-92
2021/12/10 02:32:32;;;;;;;44.65;19.20;;;1.40;99.90;;;;;;5034359;28;20535;-92
2021/12/10 02:34:57;;;;;;;40.67;18.75;;;1.40;99.90;;;;;;5051673;28;20072;-91
2021/12/10 02:37:23;;;;;;;43.25;19.00;;;1.40;99.90;;;;;;5033543;28;20048;-91
2021/12/10 02:39:49;;;;;;;31.85;18.25;;;1.40;99.90;;;;;;5045418;28;20043;-91
2021/12/10 02:42:15;;;;;;;34.20;17.77;;;1.50;99.90;;;;;;5036333;28;20020;-92
2021/12/10 02:44:41;;;;;;;37.10;18.17;;;1.50;99.90;;;;;;5051864;28;20017;-92
2021/12/10 02:47:06;;;;;;;34.40;17.90;;;1.50;99.90;;;;;;5045395;28;20040;-91
2021/12/10 02:49:32;;;;;;;33.80;17.65;;;1.50;99.90;;;;;;5042626;28;20025;-92
2021/12/10 02:51:59;;;;;;;32.92;18.65;;;1.50;99.90;;;;;;5034324;28;20062;-92
2021/12/10 02:54:33;;;;;;;36.28;17.77;;;1.50;99.90;;;;;;5018699;28;20079;-92
2021/12/10 02:57:09;;;;;;;36.22;18.20;;;1.50;99.90;;;;;;5033277;28;20108;-91
2021/12/10 02:59:35;;;;;;;33.83;18.20;;;1.50;99.90;;;;;;5034312;28;20027;-92
2021/12/10 03:02:03;;;;;;;36.58;18.08;;;1.50;99.90;;;;;;5041315;28;20025;-91
2021/12/10 03:04:31;;;;;;;36.78;18.75;;;1.50;99.90;;;;;;5030430;28;20022;-92
2021/12/10 03:06:59;;;;;;;33.67;18.33;;;1.50;99.90;;;;;;5038856;28;20028;-92
2021/12/10 03:09:26;;;;;;;36.10;19.67;;;1.50;99.90;;;;;;5035797;28;20025;-92
2021/12/10 03:11:56;;;;;;;35.90;19.15;;;1.50;99.90;;;;;;5033391;28;20012;-92
2021/12/10 03:14:25;;;;;;;35.50;18.65;;;1.50;99.90;;;;;;5045901;28;20017;-92
2021/12/10 03:16:53;;;;;;;38.92;20.45;;;1.50;99.90;;;;;;5047371;28;20029;-92
2021/12/10 03:19:19;;;;;;;33.10;17.98;;;1.40;99.90;;;;;;5061462;28;20520;-92
2021/12/10 03:21:45;;;;;;;32.97;17.48;;;1.40;99.90;;;;;;5033023;28;20082;-91
2021/12/10 03:24:17;;;;;;;39.50;18.15;;;1.50;99.90;;;;;;5032903;28;20029;-92
2021/12/10 03:26:43;;;;;;;30.60;16.70;;;1.50;99.90;;;;;;5051030;28;20094;-92
2021/12/10 03:29:09;;;;;;;30.00;17.92;;;1.50;99.90;;;;;;5043963;28;20057;-92
2021/12/10 03:31:35;;;;;;;33.67;18.02;;;1.50;99.90;;;;;;5032081;28;20035;-91
2021/12/10 03:34:04;;;;;;;28.08;16.67;;;1.50;99.90;;;;;;5037180;28;20033;-91
2021/12/10 03:36:31;;;;;;;28.42;17.85;;;1.50;99.90;;;;;;5027952;28;20037;-92
2021/12/10 03:38:56;;;;;;;28.67;17.25;;;1.50;99.90;;;;;;5030561;28;20022;-91
2021/12/10 03:41:23;;;;;;;31.27;17.55;;;1.50;99.90;;;;;;5038081;28;20073;-92
2021/12/10 03:43:50;;;;;;;30.27;17.70;;;1.50;99.90;;;;;;5032813;28;20033;-92
2021/12/10 03:46:17;;;;;;;27.25;16.40;;;1.50;99.90;;;;;;5032569;28;20570;-92
2021/12/10 03:48:48;;;;;;;27.77;16.38;;;1.50;99.90;;;;;;5035580;28;20029;-91
2021/12/10 03:51:18;;;;;;;30.57;15.67;;;1.60;99.90;;;;;;5049507;28;20032;-92
2021/12/10 03:53:44;;;;;;;29.20;17.30;;;1.60;99.90;;;;;;5032946;28;20295;-91
2021/12/10 03:56:15;;;;;;;31.40;16.02;;;1.60;99.90;;;;;;5043050;28;20504;-92
2021/12/10 03:58:42;;;;;;;36.40;17.63;;;1.60;99.90;;;;;;5038591;28;20111;-92
2021/12/10 04:01:11;;;;;;;36.05;18.05;;;1.60;99.90;;;;;;5034566;28;20275;-90
2021/12/10 04:03:37;;;;;;;34.22;17.17;;;1.60;99.90;;;;;;5030753;28;20021;-92
2021/12/10 04:06:04;;;;;;;28.13;16.77;;;1.60;99.90;;;;;;5032230;28;20025;-91
2021/12/10 04:08:30;;;;;;;27.58;16.17;;;1.60;99.90;;;;;;5033793;28;20029;-92
2021/12/10 04:10:56;;;;;;;31.98;17.80;;;1.50;99.90;;;;;;5036756;28;20782;-91
2021/12/10 04:13:22;;;;;;;30.92;15.98;;;1.50;99.90;;;;;;5050402;28;20075;-92
2021/12/10 04:15:48;;;;;;;27.05;15.32;;;1.50;99.90;;;;;;5032549;28;20079;-92
2021/12/10 04:18:14;;;;;;;28.60;16.27;;;1.60;99.90;;;;;;5033459;28;20034;-92
2021/12/10 04:20:41;;;;;;;27.77;17.73;;;1.60;99.90;;;;;;5054895;28;20028;-92
2021/12/10 04:23:11;;;;;;;36.10;18.58;;;1.50;99.90;;;;;;5041857;28;20029;-90
2021/12/10 04:25:38;;;;;;;45.57;19.70;;;1.50;99.90;;;;;;5030185;28;20849;-92
2021/12/10 04:28:07;;;;;;;40.20;18.10;;;1.50;99.90;;;;;;5038386;28;20294;-92
2021/12/10 04:30:39;;;;;;;35.97;18.52;;;1.50;99.90;;;;;;5034177;28;20043;-92
2021/12/10 04:33:06;;;;;;;34.08;18.48;;;1.50;99.90;;;;;;5032678;28;20029;-92
2021/12/10 04:35:32;;;;;;;33.83;17.02;;;1.50;99.90;;;;;;5032890;28;20124;-93
2021/12/10 04:37:58;;;;;;;31.77;17.38;;;1.50;99.90;;;;;;5035012;28;20037;-92
2021/12/10 04:40:24;;;;;;;38.30;17.58;;;1.50;99.90;;;;;;5035697;28;20029;-91
2021/12/10 04:42:51;;;;;;;29.17;16.00;;;1.50;99.90;;;;;;5035430;28;20021;-92
2021/12/10 04:45:18;;;;;;;29.00;16.17;;;1.50;99.90;;;;;;5039476;28;20025;-91
2021/12/10 04:47:45;;;;;;;28.60;15.95;;;1.60;99.90;;;;;;5035425;28;20461;-93
2021/12/10 04:50:12;;;;;;;28.80;16.92;;;1.60;99.90;;;;;;5035699;28;20120;-93
2021/12/10 04:52:38;;;;;;;29.45;16.45;;;1.60;99.90;;;;;;5041880;28;20405;-91
2021/12/10 04:55:08;;;;;;;27.30;15.77;;;1.50;99.90;;;;;;5049780;28;20102;-91
2021/12/10 04:57:34;;;;;;;22.98;15.60;;;1.50;99.90;;;;;;5028738;28;20029;-92
2021/12/10 05:00:01;;;;;;;30.73;15.43;;;1.50;99.90;;;;;;5045870;28;20119;-90
2021/12/10 05:02:27;;;;;;;34.38;17.42;;;1.50;99.90;;;;;;5035882;28;20398;-91
2021/12/10 05:04:57;;;;;;;29.08;16.58;;;1.50;99.90;;;;;;5052197;28;20040;-91
2021/12/10 05:07:24;;;;;;;31.65;15.73;;;1.50;99.90;;;;;;5035219;28;20048;-91
2021/12/10 05:09:50;;;;;;;33.30;15.27;;;1.50;99.90;;;;;;5035293;28;20032;-91
2021/12/10 05:12:16;;;;;;;27.38;16.10;;;1.50;99.90;;;;;;5035106;28;20113;-92
2021/12/10 05:14:42;;;;;;;37.95;16.38;;;1.50;99.90;;;;;;5035458;28;20063;-92
2021/12/10 05:17:09;;;;;;;31.05;15.00;;;1.60;99.90;;;;;;5039021;28;20064;-91
2021/12/10 05:19:37;;;;;;;36.72;15.32;;;1.60;99.90;;;;;;5034671;28;20027;-90
2021/12/10 05:22:06;;;;;;;31.90;16.05;;;1.60;99.90;;;;;;5036352;28;20021;-92
2021/12/10 05:24:32;;;;;;;27.52;14.68;;;1.60;99.90;;;;;;5034505;28;20032;-92
2021/12/10 05:26:59;;;;;;;34.70;14.60;;;1.60;99.90;;;;;;5034215;28;20029;-92
2021/12/10 05:29:25;;;;;;;25.08;14.23;;;1.60;99.90;;;;;;5066720;28;20028;-90
2021/12/10 05:31:52;;;;;;;23.00;15.15;;;1.70;99.90;;;;;;5035104;28;20392;-91
2021/12/10 05:34:18;;;;;;;29.10;14.82;;;1.70;99.90;;;;;;5040919;28;20036;-90
2021/12/10 05:36:44;;;;;;;24.98;15.18;;;1.70;99.90;;;;;;5034951;28;20052;-91
2021/12/10 05:39:12;;;;;;;27.02;14.13;;;1.70;99.90;;;;;;5037464;28;20520;-90
2021/12/10 05:41:37;;;;;;;26.23;14.60;;;1.60;99.90;;;;;;5034726;28;20017;-91
2021/12/10 05:44:05;;;;;;;29.80;13.90;;;1.60;99.90;;;;;;5043793;28;20606;-91
2021/12/10 05:46:31;;;;;;;24.17;15.02;;;1.60;99.90;;;;;;5033993;28;21480;-91
2021/12/10 05:48:58;;;;;;;24.10;13.60;;;1.60;99.90;;;;;;5037152;28;20033;-92
2021/12/10 05:51:24;;;;;;;20.48;14.02;;;1.60;99.90;;;;;;5049376;28;20028;-91
2021/12/10 05:53:50;;;;;;;34.22;14.90;;;1.60;99.90;;;;;;5036951;28;20032;-92
2021/12/10 05:56:17;;;;;;;35.70;18.13;;;1.60;99.90;;;;;;5039925;28;20481;-90
2021/12/10 05:58:42;;;;;;;25.25;15.48;;;1.60;99.90;;;;;;5055449;28;20033;-91
2021/12/10 06:01:11;;;;;;;27.42;14.27;;;1.60;99.90;;;;;;5034195;28;20117;-90
2021/12/10 06:03:39;;;;;;;27.10;15.00;;;1.60;99.90;;;;;;5033973;28;20025;-91
2021/12/10 06:06:07;;;;;;;27.85;14.65;;;1.60;99.90;;;;;;5037740;28;20031;-91
2021/12/10 06:08:33;;;;;;;29.98;16.17;;;1.60;99.90;;;;;;5034434;28;20021;-91
2021/12/10 06:11:00;;;;;;;28.08;15.95;;;1.60;99.90;;;;;;5033785;28;20037;-92
2021/12/10 06:13:27;;;;;;;28.25;16.20;;;1.60;99.90;;;;;;5061173;28;20071;-91
2021/12/10 06:15:53;;;;;;;24.80;15.23;;;1.60;99.90;;;;;;5043758;28;20029;-93
2021/12/10 06:18:19;;;;;;;25.13;16.60;;;1.60;99.90;;;;;;5056808;28;20032;-92
2021/12/10 06:20:48;;;;;;;33.78;16.17;;;1.60;99.90;;;;;;5037629;28;20493;-91
2021/12/10 06:23:14;;;;;;;28.05;15.13;;;1.60;99.90;;;;;;5035376;28;20109;-92
2021/12/10 06:25:40;;;;;;;28.17;15.88;;;1.70;99.90;;;;;;5033767;28;20116;-94
2021/12/10 06:28:07;;;;;;;30.70;18.27;;;1.70;99.90;;;;;;5033658;28;20033;-89
2021/12/10 06:30:37;;;;;;;29.65;15.70;;;1.60;99.90;;;;;;5036743;28;20036;-91
2021/12/10 06:33:06;;;;;;;27.40;17.02;;;1.60;99.90;;;;;;5030301;28;20869;-92
2021/12/10 06:35:35;;;;;;;33.35;16.25;;;1.60;99.90;;;;;;5021936;28;20032;-91
2021/12/10 06:38:01;;;;;;;29.48;16.67;;;1.60;99.90;;;;;;5032082;28;20852;-90
2021/12/10 06:40:29;;;;;;;28.73;16.25;;;1.60;99.90;;;;;;5033229;28;20029;-91
2021/12/10 06:42:56;;;;;;;35.05;14.88;;;1.60;99.90;;;;;;5033154;28;20033;-91
2021/12/10 06:45:28;;;;;;;31.45;14.55;;;1.60;99.90;;;;;;5033322;28;20029;-93
2021/12/10 06:48:00;;;;;;;29.13;14.65;;;1.60;99.90;;;;;;5033349;28;20559;-92
2021/12/10 06:50:29;;;;;;;28.17;14.38;;;1.50;99.90;;;;;;5033976;28;20029;-91
2021/12/10 06:52:55;;;;;;;24.15;14.73;;;1.50;99.90;;;;;;5032895;28;20032;-92
2021/12/10 06:55:21;;;;;;;25.08;14.45;;;1.50;99.90;;;;;;5033098;28;20459;-92
2021/12/10 06:57:47;;;;;;;26.65;14.05;;;1.60;99.90;;;;;;5028709;28;20075;-92
2021/12/10 07:00:21;;;;;;;34.85;16.58;;;1.60;99.90;;;;;;5046104;28;20029;-92
2021/12/10 07:02:47;;;;;;;30.95;15.93;;;1.60;99.90;;;;;;5036937;28;20533;-91
2021/12/10 07:05:13;;;;;;;30.42;16.65;;;1.60;99.90;;;;;;5032594;28;20040;-91
2021/12/10 07:07:40;;;;;;;32.88;15.93;;;1.60;99.90;;;;;;5037315;28;20120;-91
2021/12/10 07:10:07;;;;;;;24.23;15.05;;;1.60;99.90;;;;;;5032842;28;20112;-91
2021/12/10 07:12:38;;;;;;;23.73;15.27;;;1.60;99.90;;;;;;5033397;28;20108;-92
2021/12/10 07:15:08;;;;;;;25.42;15.70;;;1.60;99.90;;;;;;5040964;28;20025;-92
2021/12/10 07:17:34;;;;;;;31.33;15.30;;;1.60;99.90;;;;;;5035556;28;20086;-92
2021/12/10 07:20:00;;;;;;;32.33;15.95;;;1.60;99.90;;;;;;5043007;28;20037;-89
2021/12/10 07:22:26;;;;;;;30.10;13.82;;;1.60;99.90;;;;;;5033152;28;20037;-91
2021/12/10 07:24:52;;;;;;;22.90;14.90;;;1.60;99.90;;;;;;5036058;28;20108;-92
2021/12/10 07:27:17;;;;;;;35.78;15.38;;;1.50;99.90;;;;;;5041519;28;20033;-91
2021/12/10 07:29:43;;;;;;;28.08;15.20;;;1.50;99.90;;;;;;5033576;28;20017;-91
2021/12/10 07:32:09;;;;;;;27.27;15.43;;;1.50;99.90;;;;;;5034028;28;20070;-90
2021/12/10 07:34:35;;;;;;;25.63;15.07;;;1.50;99.90;;;;;;5034856;28;20037;-92
2021/12/10 07:37:02;;;;;;;28.42;15.57;;;1.50;99.90;;;;;;5032667;28;20044;-92
2021/12/10 07:39:28;;;;;;;21.35;14.02;;;1.50;99.90;;;;;;5040220;28;20017;-91
2021/12/10 07:41:54;;;;;;;34.17;16.48;;;1.50;99.90;;;;;;5036576;28;20013;-91
2021/12/10 07:44:20;;;;;;;26.02;14.98;;;1.50;99.90;;;;;;5054446;28;20020;-92
2021/12/10 07:46:48;;;;;;;22.70;12.55;;;1.60;99.90;;;;;;5040958;28;20811;-92
2021/12/10 07:49:17;;;;;;;19.42;12.75;;;1.60;99.90;;;;;;5031070;28;20025;-92
2021/12/10 07:51:45;;;;;;;19.42;11.98;;;1.70;99.90;;;;;;5045007;28;20527;-91
2021/12/10 07:54:11;;;;;;;26.38;11.57;;;1.80;99.90;;;;;;5041727;28;20025;-92
2021/12/10 07:56:38;;;;;;;19.13;10.52;;;1.80;99.90;;;;;;5054256;28;20017;-92
2021/12/10 07:59:04;;;;;;;20.92;11.68;;;1.80;99.90;;;;;;5038939;28;20033;-92
2021/12/10 08:01:31;;;;;;;17.05;10.48;;;1.80;99.90;;;;;;5040465;28;20043;-91
2021/12/10 08:03:58;;;;;;;14.43;10.27;;;1.70;99.90;;;;;;5042702;28;20520;-92
2021/12/10 08:06:26;;;;;;;17.92;11.15;;;1.70;99.90;;;;;;5037654;28;20032;-91
2021/12/10 08:08:51;;;;;;;21.70;10.98;;;1.70;99.90;;;;;;5038082;28;20028;-91
2021/12/10 08:11:19;;;;;;;20.55;11.00;;;1.70;99.90;;;;;;5060399;28;20017;-92
2021/12/10 08:13:44;;;;;;;14.55;9.40;;;1.70;99.90;;;;;;5037401;28;20036;-93
2021/12/10 08:16:11;;;;;;;15.13;11.02;;;1.70;99.90;;;;;;5037158;28;20029;-92
2021/12/10 08:18:36;;;;;;;13.40;9.15;;;1.80;99.90;;;;;;5041215;28;20024;-92
2021/12/10 08:21:04;;;;;;;12.60;9.23;;;1.80;99.90;;;;;;5057607;28;20025;-91
2021/12/10 08:23:30;;;;;;;15.02;9.27;;;1.80;99.90;;;;;;5045513;28;20013;-91
2021/12/10 08:25:56;;;;;;;10.32;7.93;;;1.90;99.90;;;;;;5027786;28;20101;-92
2021/12/10 08:28:24;;;;;;;25.13;9.25;;;1.90;99.90;;;;;;5036838;28;20044;-92
2021/12/10 08:30:51;;;;;;;15.13;9.63;;;1.90;99.90;;;;;;5048611;28;20108;-92
2021/12/10 08:33:17;;;;;;;19.38;9.95;;;1.90;99.90;;;;;;5037261;28;20052;-92
2021/12/10 08:35:47;;;;;;;23.90;11.95;;;1.80;99.90;;;;;;5054971;28;20163;-91
2021/12/10 08:38:13;;;;;;;17.00;10.55;;;1.80;99.90;;;;;;5037099;28;20033;-91
2021/12/10 08:40:44;;;;;;;20.13;9.82;;;1.80;99.90;;;;;;5037314;28;20037;-92
2021/12/10 08:43:10;;;;;;;15.40;10.20;;;1.80;99.90;;;;;;5036650;28;20033;-91
2021/12/10 08:45:39;;;;;;;21.70;11.35;;;1.80;99.90;;;;;;5036691;28;20022;-92
2021/12/10 08:48:05;;;;;;;23.00;11.40;;;1.80;99.90;;;;;;5034499;28;20037;-91
2021/12/10 08:50:32;;;;;;;16.27;10.55;;;1.80;99.90;;;;;;5037606;28;20120;-92
2021/12/10 08:53:01;;;;;;;19.02;11.38;;;1.80;99.90;;;;;;5025866;28;20408;-91
2021/12/10 08:55:28;;;;;;;15.90;10.02;;;1.80;99.90;;;;;;5025694;28;20031;-91
2021/12/10 08:57:54;;;;;;;20.60;11.02;;;1.90;99.90;;;;;;5068734;28;20037;-91
2021/12/10 09:00:21;;;;;;;20.30;11.32;;;1.80;99.90;;;;;;5061491;28;20032;-91
2021/12/10 09:02:49;;;;;;;23.40;10.73;;;1.90;99.90;;;;;;5063457;28;20488;-90
2021/12/10 09:05:15;;;;;;;25.25;12.15;;;1.90;99.90;;;;;;5053810;28;20108;-90
2021/12/10 09:07:44;;;;;;;17.80;11.23;;;1.80;99.90;;;;;;5036036;28;20033;-91
2021/12/10 09:10:12;;;;;;;24.23;12.20;;;1.80;99.90;;;;;;5054075;28;20033;-90
2021/12/10 09:12:39;;;;;;;19.55;11.35;;;1.80;99.90;;;;;;5036154;28;20031;-93
2021/12/10 09:15:07;;;;;;;17.60;10.07;;;1.80;99.90;;;;;;5034432;28;20026;-91
2021/12/10 09:17:35;;;;;;;18.88;11.30;;;1.90;99.90;;;;;;5037166;28;20036;-91
2021/12/10 09:20:05;;;;;;;24.88;11.70;;;1.80;99.90;;;;;;5048035;28;20058;-90
2021/12/10 09:22:31;;;;;;;20.42;11.40;;;1.90;99.90;;;;;;5051267;28;20090;-90
2021/12/10 09:24:57;;;;;;;19.63;11.27;;;1.80;99.90;;;;;;5035898;28;20493;-90
2021/12/10 09:27:24;;;;;;;22.45;11.50;;;1.90;99.90;;;;;;5029135;28;20024;-90
2021/12/10 09:29:53;;;;;;;20.50;11.05;;;1.90;99.90;;;;;;5019169;28;20064;-91
2021/12/10 09:32:24;;;;;;;20.02;11.50;;;1.90;99.90;;;;;;5034781;28;20028;-90
2021/12/10 09:34:50;;;;;;;21.15;12.68;;;1.90;99.90;;;;;;5038653;28;20025;-91
2021/12/10 09:37:21;;;;;;;21.52;12.10;;;1.90;99.90;;;;;;5025467;28;20573;-90
2021/12/10 09:39:49;;;;;;;18.23;10.82;;;1.90;99.90;;;;;;5063145;28;20032;-90
2021/12/10 09:42:17;;;;;;;20.35;12.60;;;1.90;99.90;;;;;;5048868;28;20040;-90
2021/12/10 09:44:43;;;;;;;27.95;13.35;;;1.90;99.90;;;;;;5035364;28;20706;-89
2021/12/10 09:47:14;;;;;;;22.33;12.10;;;1.90;99.90;;;;;;5031245;28;20029;-90
2021/12/10 09:49:46;;;;;;;16.35;11.88;;;2.00;99.90;;;;;;5034738;28;20120;-91
2021/12/10 09:52:11;;;;;;;20.02;13.45;;;2.00;99.90;;;;;;5034790;28;20041;-91
2021/12/10 09:54:38;;;;;;;20.75;12.60;;;2.00;99.90;;;;;;5033878;28;20083;-91
2021/12/10 09:57:11;;;;;;;25.88;12.48;;;1.90;99.90;;;;;;5040797;28;20060;-90
2021/12/10 09:59:39;;;;;;;18.50;12.93;;;2.00;99.90;;;;;;5036383;28;20040;-90
2021/12/10 10:02:06;;;;;;;18.08;11.02;;;2.00;99.90;;;;;;5036067;28;20059;-90
2021/12/10 10:04:35;;;;;;;20.55;13.23;;;1.90;99.90;;;;;;5058140;28;20035;-90
2021/12/10 10:07:10;;;;;;;23.30;11.13;;;1.90;99.90;;;;;;5031687;28;20123;-90
2021/12/10 10:09:36;;;;;;;23.80;13.32;;;1.90;99.90;;;;;;5035322;28;20037;-89
2021/12/10 10:12:13;;;;;;;18.42;11.80;;;1.90;99.90;;;;;;5033540;28;20025;-90
2021/12/10 10:14:40;;;;;;;13.10;11.43;;;1.90;99.90;;;;;;5034312;28;20033;-90
2021/12/10 10:17:11;;;;;;;17.52;10.43;;;1.80;99.90;;;;;;5056347;28;20033;-91
2021/12/10 10:19:37;;;;;;;;;;;1.80;99.90;;;;;;5051072;28;20079;-91
2021/12/10 10:22:06;;;;;;;16.40;10.88;;;1.90;99.90;;;;;;5042077;28;19908;-90
2021/12/10 10:24:33;;;;;;;19.35;10.95;;;1.80;99.90;;;;;;5038791;28;20489;-92
2021/12/10 10:27:08;;;;;;;16.27;10.68;;;1.80;99.90;;;;;;5051616;28;20029;-90
2021/12/10 10:29:39;;;;;;;18.92;10.15;;;1.80;99.90;;;;;;5035085;28;20477;-90
2021/12/10 10:32:11;;;;;;;17.42;11.52;;;1.80;99.90;;;;;;5052813;28;20518;-91
2021/12/10 10:34:49;;;;;;;12.00;9.80;;;1.80;99.90;;;;;;5056999;28;20062;-91
2021/12/10 10:37:17;;;;;;;15.10;10.02;;;1.80;99.90;;;;;;5035080;28;20397;-90
2021/12/10 10:39:43;;;;;;;16.95;12.60;;;1.80;99.90;;;;;;5033556;28;20021;-91
2021/12/10 10:42:15;;;;;;;16.52;10.23;;;1.80;99.90;;;;;;5039514;28;20116;-90
2021/12/10 10:44:42;;;;;;;20.17;11.15;;;1.90;99.90;;;;;;5050482;28;20021;-91
2021/12/10 10:47:09;;;;;;;12.60;10.32;;;1.90;99.90;;;;;;5036163;28;20032;-90
2021/12/10 10:49:37;;;;;;;18.00;11.63;;;1.90;99.90;;;;;;5060993;28;20452;-90
2021/12/10 10:52:16;;;;;;;24.48;11.43;;;1.90;99.90;;;;;;5035183;28;20042;-90
2021/12/10 10:54:46;;;;;;;14.43;10.93;;;1.90;99.90;;;;;;5047041;28;20029;-90
2021/12/10 10:57:26;;;;;;;16.17;11.65;;;1.90;99.90;;;;;;5044676;28;20037;-91
2021/12/10 10:59:57;;;;;;;18.63;11.70;;;2.00;99.90;;;;;;5037808;28;20024;-90
2021/12/10 11:02:37;;;;;;;15.05;10.48;;;2.00;99.90;;;;;;5035546;28;20025;-91
2021/12/10 11:05:11;;;;;;;18.05;11.43;;;2.00;99.90;;;;;;5034647;28;20524;-90
2021/12/10 11:07:51;;;;;;;15.23;10.85;;;2.10;99.90;;;;;;5026745;28;20076;-91
2021/12/10 11:10:37;;;;;;;15.75;9.30;;;2.20;99.90;;;;;;5029704;28;20746;-90
2021/12/10 11:13:23;;;;;;;10.98;9.05;;;2.10;99.90;;;;;;5034855;28;20060;-91
2021/12/10 11:16:00;;;;;;;14.80;8.85;;;2.10;99.90;;;;;;5046674;28;20040;-90
2021/12/10 11:18:37;;;;;;;15.65;10.45;;;2.10;99.90;;;;;;5042888;28;20093;-91
2021/12/10 11:21:03;;;;;;;14.70;8.45;;;2.10;99.90;;;;;;5040152;28;20029;-90
2021/12/10 11:23:31;;;;;;;15.18;8.63;;;2.10;99.90;;;;;;5034230;28;20079;-91
2021/12/10 11:25:57;;;;;;;12.32;8.02;;;2.10;99.90;;;;;;5033329;28;20047;-91
2021/12/10 11:28:33;;;;;;;9.52;8.23;;;2.20;99.90;;;;;;5034428;28;20112;-91
2021/12/10 11:31:04;;;;;;;10.05;7.40;;;2.20;99.90;;;;;;5035261;28;20523;-91
2021/12/10 11:33:37;;;;;;;7.75;6.85;;;2.20;99.90;;;;;;5037356;28;20036;-92
2021/12/10 11:36:09;;;;;;;8.98;7.18;;;2.20;99.90;;;;;;5048677;28;20029;-90
2021/12/10 11:38:36;;;;;;;11.30;7.55;;;2.30;99.90;;;;;;5037659;28;20032;-91
2021/12/10 11:41:24;;;;;;;8.70;6.57;;;2.30;99.90;;;;;;5042583;28;20500;-91
2021/12/10 11:44:06;;;;;;;8.77;7.40;;;2.20;99.90;;;;;;5027881;28;20018;-91
2021/12/10 11:46:51;;;;;;;9.60;6.60;;;2.30;99.90;;;;;;5037140;28;20033;-90
2021/12/10 11:49:27;;;;;;;8.45;6.63;;;2.50;99.90;;;;;;5044502;28;20059;-90
2021/12/10 11:52:01;;;;;;;11.55;7.30;;;2.50;99.90;;;;;;5026905;28;20078;-91
2021/12/10 11:54:40;;;;;;;10.50;8.15;;;2.50;99.90;;;;;;5055610;28;20108;-92
2021/12/10 11:57:28;;;;;;;9.18;6.90;;;2.50;99.90;;;;;;5038259;28;20031;-90
2021/12/10 11:59:58;;;;;;;10.75;7.07;;;2.60;99.90;;;;;;5025723;28;20037;-91
2021/12/10 12:02:25;;;;;;;8.83;7.93;;;2.60;99.90;;;;;;5037035;28;20017;-90
2021/12/10 12:04:58;;;;;;;8.85;7.80;;;2.60;99.90;;;;;;5030460;28;20071;-90
2021/12/10 12:07:35;;;;;;;12.73;8.07;;;2.60;99.90;;;;;;5037391;28;20556;-91
2021/12/10 12:10:06;;;;;;;15.48;8.13;;;2.60;99.90;;;;;;5037354;28;20408;-90
2021/12/10 12:12:42;;;;;;;11.23;8.10;;;2.60;99.90;;;;;;5036906;28;20029;-91
2021/12/10 12:15:28;;;;;;;15.20;8.75;;;2.60;99.90;;;;;;5035941;28;20029;-90
2021/12/10 12:18:29;;;;;;;10.70;7.72;;;2.60;99.90;;;;;;5029885;28;20477;-90
2021/12/10 12:27:06;;;;;;;15.77;7.65;;;2.80;99.90;;;;;;5054590;28;20036;-91
2021/12/10 12:29:58;;;;;;;9.45;5.30;;;2.90;99.90;;;;;;5031109;28;20021;-91
2021/12/10 12:32:32;;;;;;;7.88;5.95;;;2.90;99.90;;;;;;5032697;28;20037;-92
2021/12/10 12:35:20;;;;;;;6.53;5.32;;;2.90;99.90;;;;;;5041131;28;20055;-90
2021/12/10 12:37:45;;;;;;;10.15;5.93;;;2.90;99.90;;;;;;5033417;28;20033;-91
2021/12/10 12:40:12;;;;;;;6.65;5.20;;;2.90;99.90;;;;;;5036747;28;20424;-91
2021/12/10 12:42:47;;;;;;;6.25;4.35;;;2.90;99.90;;;;;;5034707;28;20051;-91
2021/12/10 12:45:19;;;;;;;6.43;4.35;;;2.90;99.90;;;;;;5040115;28;20441;-91
2021/12/10 12:47:48;;;;;;;8.23;5.63;;;2.90;99.90;;;;;;5061605;28;20020;-91
2021/12/10 12:50:27;;;;;;;6.20;5.30;;;2.90;99.90;;;;;;5056117;28;20037;-91
2021/12/10 12:53:00;;;;;;;7.55;5.18;;;2.80;99.90;;;;;;5045933;28;20041;-91
2021/12/10 12:55:41;;;;;;;9.38;5.45;;;2.70;99.90;;;;;;5054755;28;20037;-90
2021/12/10 12:58:09;;;;;;;10.40;5.18;;;2.60;99.90;;;;;;5036039;28;20033;-90
2021/12/10 13:01:09;;;;;;;9.95;5.95;;;2.50;99.90;;;;;;5036695;28;20024;-93
2021/12/10 13:03:46;;;;;;;7.82;4.78;;;2.40;99.90;;;;;;5024379;28;20022;-91
2021/12/10 13:06:30;;;;;;;8.48;5.47;;;2.40;99.90;;;;;;5047820;28;20029;-91